Terminal Aerodrome Forecast
Issued by NWS Omaha/Valley, NE

Home | Current Version | Previous Version | Text Only | Print | Product List | Glossary On
Versions: 1 2 3 4 5 6 7 8 9 10 11 12 13 14 15 16 17 18
000
FTUS43 KOAX 211120
TAFLNK
TAF
KLNK 211120Z 2112/2212 09012KT P6SM VCTS BKN080CB
     FM211400 16012KT P6SM BKN200
     FM212000 22015G22KT P6SM BKN200
     FM220100 20007KT 4SM TSRA BKN040CB
     FM220300 30006KT P6SM SHRA VCTS BKN090CB
     FM220600 30004KT P6SM BKN100=

USA.gov is the U.S. government's official web portal to all federal, state and local government web resources and services.